sensor_id;sensor_type;location;lat;lon;timestamp;pressure;altitude;pressure_sealevel;temperature;humidity
21431;BME280;10876;49.038;10.608;2022-08-01T00:02:02;98171.09;;;17.38;100.00
21431;BME280;10876;49.038;10.608;2022-08-01T00:04:29;98174.31;;;17.40;100.00
21431;BME280;10876;49.038;10.608;2022-08-01T00:06:56;98171.75;;;17.54;100.00
21431;BME280;10876;49.038;10.608;2022-08-01T00:09:23;98173.47;;;17.63;100.00
21431;BME280;10876;49.038;10.608;2022-08-01T00:11:50;98165.41;;;17.77;100.00
21431;BME280;10876;49.038;10.608;2022-08-01T00:14:17;98170.75;;;17.89;100.00
21431;BME280;10876;49.038;10.608;2022-08-01T00:16:44;98167.66;;;17.94;100.00
21431;BME280;10876;49.038;10.608;2022-08-01T00:19:12;98170.09;;;17.99;100.00
21431;BME280;10876;49.038;10.608;2022-08-01T00:21:40;98168.50;;;17.98;100.00
21431;BME280;10876;49.038;10.608;2022-08-01T00:24:07;98168.47;;;17.95;100.00
21431;BME280;10876;49.038;10.608;2022-08-01T00:26:34;98175.75;;;18.07;100.00
21431;BME280;10876;49.038;10.608;2022-08-01T00:29:01;98178.00;;;17.97;100.00
21431;BME280;10876;49.038;10.608;2022-08-01T00:31:28;98175.75;;;18.07;100.00
21431;BME280;10876;49.038;10.608;2022-08-01T00:33:55;98179.78;;;18.13;100.00
21431;BME280;10876;49.038;10.608;2022-08-01T00:36:24;98177.38;;;18.11;100.00
21431;BME280;10876;49.038;10.608;2022-08-01T00:38:51;98186.59;;;18.19;100.00
21431;BME280;10876;49.038;10.608;2022-08-01T00:41:18;98179.94;;;18.23;100.00
21431;BME280;10876;49.038;10.608;2022-08-01T00:43:45;98178.34;;;18.22;100.00
21431;BME280;10876;49.038;10.608;2022-08-01T01:29:52;98197.34;;;18.20;100.00
21431;BME280;10876;49.038;10.608;2022-08-01T01:32:28;98200.19;;;18.28;100.00
21431;BME280;10876;49.038;10.608;2022-08-01T01:35:00;98207.06;;;18.37;100.00
21431;BME280;10876;49.038;10.608;2022-08-01T01:37:29;98212.69;;;18.44;100.00
21431;BME280;10876;49.038;10.608;2022-08-01T01:39:59;98211.19;;;18.51;100.00
21431;BME280;10876;49.038;10.608;2022-08-01T01:42:28;98201.78;;;18.59;100.00
21431;BME280;10876;49.038;10.608;2022-08-01T01:44:58;98208.19;;;18.63;100.00
21431;BME280;10876;49.038;10.608;2022-08-01T01:47:27;98205.06;;;18.68;100.00
21431;BME280;10876;49.038;10.608;2022-08-01T01:49:56;98214.69;;;18.74;100.00
21431;BME280;10876;49.038;10.608;2022-08-01T01:52:26;98199.31;;;18.80;100.00
21431;BME280;10876;49.038;10.608;2022-08-01T01:54:56;98209.22;;;18.81;100.00
21431;BME280;10876;49.038;10.608;2022-08-01T01:57:23;98203.69;;;18.81;100.00
21431;BME280;10876;49.038;10.608;2022-08-01T01:59:52;98195.00;;;18.83;100.00
21431;BME280;10876;49.038;10.608;2022-08-01T02:02:22;98201.34;;;18.83;100.00
21431;BME280;10876;49.038;10.608;2022-08-01T02:04:51;98207.69;;;18.84;100.00
21431;BME280;10876;49.038;10.608;2022-08-01T02:07:22;98204.50;;;18.85;100.00
21431;BME280;10876;49.038;10.608;2022-08-01T02:09:51;98208.47;;;18.84;100.00
21431;BME280;10876;49.038;10.608;2022-08-01T02:12:19;98214.03;;;18.84;100.00
21431;BME280;10876;49.038;10.608;2022-08-01T02:14:48;98218.03;;;18.87;100.00
21431;BME280;10876;49.038;10.608;2022-08-01T02:17:18;98229.88;;;18.84;100.00
21431;BME280;10876;49.038;10.608;2022-08-01T02:19:48;98236.22;;;18.84;100.00
21431;BME280;10876;49.038;10.608;2022-08-01T02:22:19;98252.88;;;18.84;100.00
21431;BME280;10876;49.038;10.608;2022-08-01T02:24:50;98270.28;;;18.81;100.00
21431;BME280;10876;49.038;10.608;2022-08-01T02:27:24;98275.00;;;18.77;100.00
21431;BME280;10876;49.038;10.608;2022-08-01T02:29:57;98273.38;;;18.76;100.00
21431;BME280;10876;49.038;10.608;2022-08-01T02:32:31;98281.34;;;18.78;100.00
21431;BME280;10876;49.038;10.608;2022-08-01T02:35:01;98281.66;;;18.73;100.00
21431;BME280;10876;49.038;10.608;2022-08-01T02:37:31;98278.03;;;18.68;100.00
21431;BME280;10876;49.038;10.608;2022-08-01T02:40:00;98285.97;;;18.70;100.00
21431;BME280;10876;49.038;10.608;2022-08-01T02:42:28;98288.31;;;18.68;100.00
21431;BME280;10876;49.038;10.608;2022-08-01T02:44:57;98286.72;;;18.67;100.00
21431;BME280;10876;49.038;10.608;2022-08-01T02:47:27;98287.16;;;18.69;100.00
21431;BME280;10876;49.038;10.608;2022-08-01T02:49:55;98291.50;;;18.70;100.00
21431;BME280;10876;49.038;10.608;2022-08-01T02:52:26;98285.53;;;18.68;100.00
21431;BME280;10876;49.038;10.608;2022-08-01T02:54:57;98299.41;;;18.68;100.00
21431;BME280;10876;49.038;10.608;2022-08-01T02:57:26;98296.13;;;18.59;100.00
21431;BME280;10876;49.038;10.608;2022-08-01T02:59:56;98301.13;;;18.50;100.00
21431;BME280;10876;49.038;10.608;2022-08-01T03:02:24;98301.47;;;18.18;100.00
21431;BME280;10876;49.038;10.608;2022-08-01T03:04:52;98309.25;;;17.86;100.00
21431;BME280;10876;49.038;10.608;2022-08-01T03:07:21;98316.09;;;17.30;100.00
21431;BME280;10876;49.038;10.608;2022-08-01T03:09:51;98330.25;;;17.05;100.00
21431;BME280;10876;49.038;10.608;2022-08-01T03:12:24;98349.47;;;17.18;100.00
21431;BME280;10876;49.038;10.608;2022-08-01T03:14:54;98361.28;;;17.15;100.00
21431;BME280;10876;49.038;10.608;2022-08-01T03:17:24;98367.16;;;17.13;100.00
21431;BME280;10876;49.038;10.608;2022-08-01T03:19:53;98372.69;;;17.13;100.00
21431;BME280;10876;49.038;10.608;2022-08-01T03:22:22;98384.13;;;17.11;100.00
21431;BME280;10876;49.038;10.608;2022-08-01T03:24:53;98395.03;;;17.04;100.00
21431;BME280;10876;49.038;10.608;2022-08-01T03:27:21;98395.16;;;16.92;100.00
21431;BME280;10876;49.038;10.608;2022-08-01T03:29:50;98402.03;;;16.98;100.00
21431;BME280;10876;49.038;10.608;2022-08-01T03:32:19;98406.00;;;16.65;100.00
21431;BME280;10876;49.038;10.608;2022-08-01T03:34:48;98404.31;;;16.45;100.00
21431;BME280;10876;49.038;10.608;2022-08-01T03:37:20;98405.84;;;16.42;100.00
21431;BME280;10876;49.038;10.608;2022-08-01T03:39:55;98425.34;;;16.34;100.00
21431;BME280;10876;49.038;10.608;2022-08-01T03:42:29;98431.06;;;16.41;100.00
21431;BME280;10876;49.038;10.608;2022-08-01T03:44:59;98443.63;;;16.38;100.00
21431;BME280;10876;49.038;10.608;2022-08-01T03:47:32;98442.03;;;16.37;100.00
21431;BME280;10876;49.038;10.608;2022-08-01T03:50:01;98451.47;;;16.36;100.00
21431;BME280;10876;49.038;10.608;2022-08-01T03:52:30;98444.53;;;16.27;100.00
21431;BME280;10876;49.038;10.608;2022-08-01T03:55:03;98335.16;;;16.26;100.00
21431;BME280;10876;49.038;10.608;2022-08-01T03:57:32;98284.66;;;16.29;100.00
21431;BME280;10876;49.038;10.608;2022-08-01T04:00:00;98280.13;;;16.20;100.00
21431;BME280;10876;49.038;10.608;2022-08-01T04:02:28;98271.16;;;15.92;100.00
21431;BME280;10876;49.038;10.608;2022-08-01T04:04:56;98261.97;;;15.88;100.00
21431;BME280;10876;49.038;10.608;2022-08-01T04:07:25;98253.53;;;15.81;100.00
21431;BME280;10876;49.038;10.608;2022-08-01T04:09:52;98249.22;;;15.67;100.00
21431;BME280;10876;49.038;10.608;2022-08-01T04:12:20;98253.06;;;15.79;100.00
21431;BME280;10876;49.038;10.608;2022-08-01T04:14:48;98254.53;;;15.88;100.00
21431;BME280;10876;49.038;10.608;2022-08-01T04:17:15;98254.75;;;16.15;100.00
21431;BME280;10876;49.038;10.608;2022-08-01T04:19:43;98251.78;;;16.08;100.00
21431;BME280;10876;49.038;10.608;2022-08-01T04:22:11;98253.25;;;15.70;100.00
21431;BME280;10876;49.038;10.608;2022-08-01T04:24:41;98244.78;;;15.79;100.00
21431;BME280;10876;49.038;10.608;2022-08-01T04:27:13;98245.34;;;15.68;100.00
21431;BME280;10876;49.038;10.608;2022-08-01T04:29:43;98231.44;;;15.81;100.00
21431;BME280;10876;49.038;10.608;2022-08-01T04:32:12;98208.78;;;15.91;100.00
21431;BME280;10876;49.038;10.608;2022-08-01T04:34:41;98207.78;;;15.99;100.00
21431;BME280;10876;49.038;10.608;2022-08-01T04:37:13;98205.78;;;16.15;100.00
21431;BME280;10876;49.038;10.608;2022-08-01T04:39:42;98183.97;;;16.10;100.00
21431;BME280;10876;49.038;10.608;2022-08-01T04:42:11;98182.97;;;16.18;100.00
21431;BME280;10876;49.038;10.608;2022-08-01T04:44:38;98024.78;;;16.25;100.00
21431;BME280;10876;49.038;10.608;2022-08-01T04:47:08;98023.66;;;16.49;100.00
21431;BME280;10876;49.038;10.608;2022-08-01T04:49:36;98022.88;;;16.72;100.00
21431;BME280;10876;49.038;10.608;2022-08-01T04:52:04;98027.19;;;16.92;100.00
21431;BME280;10876;49.038;10.608;2022-08-01T04:54:33;98015.19;;;17.07;100.00
21431;BME280;10876;49.038;10.608;2022-08-01T04:57:03;98021.84;;;17.29;100.00
21431;BME280;10876;49.038;10.608;2022-08-01T04:59:31;98032.44;;;17.50;100.00
21431;BME280;10876;49.038;10.608;2022-08-01T05:02:10;98035.09;;;17.70;100.00
21431;BME280;10876;49.038;10.608;2022-08-01T05:04:39;98059.06;;;17.85;100.00
21431;BME280;10876;49.038;10.608;2022-08-01T05:07:06;98066.41;;;18.00;100.00
21431;BME280;10876;49.038;10.608;2022-08-01T05:09:34;98072.47;;;18.13;100.00
21431;BME280;10876;49.038;10.608;2022-08-01T05:12:02;98111.94;;;18.33;100.00
21431;BME280;10876;49.038;10.608;2022-08-01T05:14:30;98124.28;;;18.39;100.00
21431;BME280;10876;49.038;10.608;2022-08-01T05:16:58;98132.72;;;18.46;100.00
21431;BME280;10876;49.038;10.608;2022-08-01T05:19:30;98158.94;;;18.53;100.00
21431;BME280;10876;49.038;10.608;2022-08-01T05:21:58;98197.09;;;18.63;100.00
21431;BME280;10876;49.038;10.608;2022-08-01T05:24:26;98216.94;;;18.65;100.00
21431;BME280;10876;49.038;10.608;2022-08-01T05:26:54;98239.97;;;18.69;100.00
21431;BME280;10876;49.038;10.608;2022-08-01T05:29:21;98249.59;;;18.75;100.00
21431;BME280;10876;49.038;10.608;2022-08-01T05:31:49;98250.44;;;18.79;100.00
21431;BME280;10876;49.038;10.608;2022-08-01T05:34:16;98267.56;;;18.85;100.00
21431;BME280;10876;49.038;10.608;2022-08-01T05:36:44;98274.31;;;18.87;100.00
21431;BME280;10876;49.038;10.608;2022-08-01T05:39:12;98279.09;;;18.87;100.00
21431;BME280;10876;49.038;10.608;2022-08-01T05:41:39;98279.97;;;18.95;100.00
21431;BME280;10876;49.038;10.608;2022-08-01T05:44:07;98328.75;;;18.96;100.00
21431;BME280;10876;49.038;10.608;2022-08-01T05:46:34;98344.34;;;19.04;100.00
21431;BME280;10876;49.038;10.608;2022-08-01T05:49:03;98344.03;;;19.09;100.00
21431;BME280;10876;49.038;10.608;2022-08-01T05:51:30;98342.19;;;19.20;100.00
21431;BME280;10876;49.038;10.608;2022-08-01T05:54:00;98344.28;;;19.30;100.00
21431;BME280;10876;49.038;10.608;2022-08-01T05:56:28;98336.88;;;19.42;100.00
21431;BME280;10876;49.038;10.608;2022-08-01T05:58:55;98344.88;;;19.47;100.00
21431;BME280;10876;49.038;10.608;2022-08-01T06:01:31;98349.72;;;19.57;100.00
21431;BME280;10876;49.038;10.608;2022-08-01T06:03:58;98352.59;;;19.64;100.00
21431;BME280;10876;49.038;10.608;2022-08-01T06:06:26;98348.66;;;19.65;100.00
21431;BME280;10876;49.038;10.608;2022-08-01T06:08:53;98354.72;;;19.74;100.00
21431;BME280;10876;49.038;10.608;2022-08-01T06:11:29;98376.22;;;19.77;100.00
21431;BME280;10876;49.038;10.608;2022-08-01T06:13:56;98392.13;;;19.80;100.00
21431;BME280;10876;49.038;10.608;2022-08-01T06:16:24;98389.06;;;19.93;100.00
21431;BME280;10876;49.038;10.608;2022-08-01T06:18:51;98389.88;;;19.97;100.00
21431;BME280;10876;49.038;10.608;2022-08-01T06:21:18;98385.34;;;20.22;100.00
21431;BME280;10876;49.038;10.608;2022-08-01T06:23:46;98384.78;;;20.47;100.00
21431;BME280;10876;49.038;10.608;2022-08-01T06:26:20;98376.09;;;20.52;100.00
21431;BME280;10876;49.038;10.608;2022-08-01T06:28:48;98382.63;;;20.74;100.00
21431;BME280;10876;49.038;10.608;2022-08-01T06:31:15;98377.19;;;20.96;100.00
21431;BME280;10876;49.038;10.608;2022-08-01T06:33:44;98380.50;;;21.15;100.00
21431;BME280;10876;49.038;10.608;2022-08-01T06:36:11;98434.72;;;21.36;100.00
21431;BME280;10876;49.038;10.608;2022-08-01T06:38:38;98436.47;;;21.58;100.00
21431;BME280;10876;49.038;10.608;2022-08-01T06:41:05;98435.69;;;21.69;100.00
21431;BME280;10876;49.038;10.608;2022-08-01T06:43:32;98435.75;;;21.79;100.00
21431;BME280;10876;49.038;10.608;2022-08-01T06:46:00;98432.63;;;21.95;100.00
21431;BME280;10876;49.038;10.608;2022-08-01T06:48:27;98429.41;;;22.00;100.00
21431;BME280;10876;49.038;10.608;2022-08-01T06:50:54;98431.13;;;22.30;100.00
21431;BME280;10876;49.038;10.608;2022-08-01T06:53:34;98426.31;;;22.31;100.00
21431;BME280;10876;49.038;10.608;2022-08-01T07:27:55;98377.38;;;23.78;100.00
21431;BME280;10876;49.038;10.608;2022-08-01T07:30:22;98385.44;;;23.55;100.00
21431;BME280;10876;49.038;10.608;2022-08-01T07:32:49;98385.34;;;23.80;100.00
21431;BME280;10876;49.038;10.608;2022-08-01T07:35:16;98385.00;;;23.67;100.00
21431;BME280;10876;49.038;10.608;2022-08-01T07:37:43;98383.97;;;23.25;100.00
21431;BME280;10876;49.038;10.608;2022-08-01T07:40:10;98385.16;;;23.21;100.00
21431;BME280;10876;49.038;10.608;2022-08-01T07:42:37;98376.00;;;23.20;100.00
21431;BME280;10876;49.038;10.608;2022-08-01T07:45:07;98379.13;;;23.40;100.00
21431;BME280;10876;49.038;10.608;2022-08-01T07:47:34;98375.72;;;23.88;100.00
21431;BME280;10876;49.038;10.608;2022-08-01T07:50:02;98376.53;;;23.85;100.00
21431;BME280;10876;49.038;10.608;2022-08-01T07:52:30;98381.41;;;23.74;100.00
21431;BME280;10876;49.038;10.608;2022-08-01T07:54:57;98384.63;;;23.72;100.00
21431;BME280;10876;49.038;10.608;2022-08-01T07:57:25;98382.19;;;23.74;100.00
21431;BME280;10876;49.038;10.608;2022-08-01T07:59:52;98385.34;;;23.80;100.00
21431;BME280;10876;49.038;10.608;2022-08-01T08:02:20;98373.84;;;23.60;100.00
21431;BME280;10876;49.038;10.608;2022-08-01T08:04:47;98375.59;;;24.06;100.00
21431;BME280;10876;49.038;10.608;2022-08-01T08:07:14;98383.94;;;24.69;100.00
21431;BME280;10876;49.038;10.608;2022-08-01T08:09:41;98378.38;;;25.03;100.00
21431;BME280;10876;49.038;10.608;2022-08-01T08:12:09;98383.34;;;24.88;100.00
21431;BME280;10876;49.038;10.608;2022-08-01T08:14:37;98382.97;;;24.86;100.00
21431;BME280;10876;49.038;10.608;2022-08-01T08:17:14;98383.91;;;24.72;100.00
21431;BME280;10876;49.038;10.608;2022-08-01T08:19:43;98381.63;;;24.60;100.00
21431;BME280;10876;49.038;10.608;2022-08-01T08:22:10;98385.28;;;24.95;100.00
21431;BME280;10876;49.038;10.608;2022-08-01T08:24:37;98382.13;;;24.89;100.00
21431;BME280;10876;49.038;10.608;2022-08-01T08:27:04;98386.63;;;25.25;100.00
21431;BME280;10876;49.038;10.608;2022-08-01T08:29:31;98381.88;;;24.77;100.00
21431;BME280;10876;49.038;10.608;2022-08-01T08:31:59;98393.59;;;24.64;100.00
21431;BME280;10876;49.038;10.608;2022-08-01T08:34:27;98390.31;;;24.69;100.00
21431;BME280;10876;49.038;10.608;2022-08-01T08:36:57;98394.94;;;24.90;100.00
21431;BME280;10876;49.038;10.608;2022-08-01T08:39:25;98395.91;;;24.73;100.00
21431;BME280;10876;49.038;10.608;2022-08-01T08:41:52;98403.09;;;24.74;100.00
21431;BME280;10876;49.038;10.608;2022-08-01T08:44:19;98391.28;;;24.56;100.00
21431;BME280;10876;49.038;10.608;2022-08-01T08:46:48;98392.16;;;24.42;100.00
21431;BME280;10876;49.038;10.608;2022-08-01T08:49:18;98393.34;;;24.89;100.00
21431;BME280;10876;49.038;10.608;2022-08-01T08:51:48;98392.34;;;25.14;100.00
21431;BME280;10876;49.038;10.608;2022-08-01T08:54:18;98387.47;;;25.52;100.00
21431;BME280;10876;49.038;10.608;2022-08-01T08:56:47;98387.28;;;25.36;100.00
21431;BME280;10876;49.038;10.608;2022-08-01T08:59:15;98390.72;;;25.16;100.00
21431;BME280;10876;49.038;10.608;2022-08-01T09:01:42;98386.84;;;25.37;100.00
21431;BME280;10876;49.038;10.608;2022-08-01T09:04:09;98386.63;;;25.25;100.00
21431;BME280;10876;49.038;10.608;2022-08-01T09:06:37;98393.91;;;25.15;100.00
21431;BME280;10876;49.038;10.608;2022-08-01T09:09:05;98378.78;;;25.05;100.00
21431;BME280;10876;49.038;10.608;2022-08-01T09:11:34;98379.22;;;25.38;100.00
21431;BME280;10876;49.038;10.608;2022-08-01T09:14:04;98378.19;;;25.59;100.00
21431;BME280;10876;49.038;10.608;2022-08-01T09:16:32;98382.66;;;25.87;100.00
21431;BME280;10876;49.038;10.608;2022-08-01T09:19:11;98384.00;;;26.29;100.00
21431;BME280;10876;49.038;10.608;2022-08-01T09:21:38;98386.22;;;26.69;100.00
21431;BME280;10876;49.038;10.608;2022-08-01T09:24:14;98384.22;;;26.42;100.00
21431;BME280;10876;49.038;10.608;2022-08-01T09:26:43;98384.88;;;25.99;100.00
21431;BME280;10876;49.038;10.608;2022-08-01T09:29:19;98384.47;;;25.67;100.00
21431;BME280;10876;49.038;10.608;2022-08-01T09:31:46;98395.47;;;26.42;100.00
21431;BME280;10876;49.038;10.608;2022-08-01T09:34:15;98388.94;;;26.72;100.00
21431;BME280;10876;49.038;10.608;2022-08-01T09:36:50;98383.59;;;26.31;100.00
21431;BME280;10876;49.038;10.608;2022-08-01T09:39:23;98384.13;;;25.95;100.00
21431;BME280;10876;49.038;10.608;2022-08-01T09:41:52;98382.81;;;25.73;100.00
21431;BME280;10876;49.038;10.608;2022-08-01T09:44:36;98387.59;;;25.76;100.00
21431;BME280;10876;49.038;10.608;2022-08-01T09:47:04;98382.38;;;26.59;100.00
21431;BME280;10876;49.038;10.608;2022-08-01T09:49:32;98392.06;;;26.78;100.00
21431;BME280;10876;49.038;10.608;2022-08-01T09:52:10;98385.50;;;27.08;100.00
21431;BME280;10876;49.038;10.608;2022-08-01T09:54:39;98390.78;;;26.83;100.00
21431;BME280;10876;49.038;10.608;2022-08-01T09:57:11;98384.88;;;25.99;100.00
21431;BME280;10876;49.038;10.608;2022-08-01T09:59:39;98387.31;;;25.97;100.00
21431;BME280;10876;49.038;10.608;2022-08-01T10:02:09;98384.94;;;26.73;100.00
21431;BME280;10876;49.038;10.608;2022-08-01T10:04:45;98382.91;;;27.77;100.00
21431;BME280;10876;49.038;10.608;2022-08-01T10:07:13;98371.00;;;27.90;100.00
21431;BME280;10876;49.038;10.608;2022-08-01T10:09:42;98364.63;;;27.29;100.00
21431;BME280;10876;49.038;10.608;2022-08-01T10:12:12;98371.00;;;27.10;100.00
21431;BME280;10876;49.038;10.608;2022-08-01T10:14:39;98362.41;;;26.97;100.00
21431;BME280;10876;49.038;10.608;2022-08-01T10:17:09;98355.03;;;27.47;100.00
21431;BME280;10876;49.038;10.608;2022-08-01T10:19:39;98358.31;;;27.02;100.00
21431;BME280;10876;49.038;10.608;2022-08-01T10:22:09;98369.16;;;26.80;100.00
21431;BME280;10876;49.038;10.608;2022-08-01T10:24:40;98360.31;;;26.58;100.00
21431;BME280;10876;49.038;10.608;2022-08-01T10:27:29;98358.69;;;26.33;100.00
21431;BME280;10876;49.038;10.608;2022-08-01T10:30:00;98360.28;;;26.81;100.00
21431;BME280;10876;49.038;10.608;2022-08-01T10:32:29;98359.19;;;26.99;100.00
21431;BME280;10876;49.038;10.608;2022-08-01T10:34:56;98357.84;;;27.47;100.00
21431;BME280;10876;49.038;10.608;2022-08-01T10:37:24;98353.00;;;27.67;100.00
21431;BME280;10876;49.038;10.608;2022-08-01T10:39:51;98352.88;;;27.34;100.00
21431;BME280;10876;49.038;10.608;2022-08-01T10:42:19;98353.22;;;26.73;100.00
21431;BME280;10876;49.038;10.608;2022-08-01T10:44:48;98358.25;;;26.62;100.00
21431;BME280;10876;49.038;10.608;2022-08-01T10:47:18;98355.44;;;26.35;100.00
21431;BME280;10876;49.038;10.608;2022-08-01T10:49:51;98357.28;;;26.45;100.00
21431;BME280;10876;49.038;10.608;2022-08-01T10:52:20;98351.59;;;26.25;100.00
21431;BME280;10876;49.038;10.608;2022-08-01T10:54:58;98354.34;;;26.56;100.00
21431;BME280;10876;49.038;10.608;2022-08-01T10:57:41;98352.81;;;26.94;100.00
21431;BME280;10876;49.038;10.608;2022-08-01T11:00:17;98358.47;;;27.14;100.00
21431;BME280;10876;49.038;10.608;2022-08-01T11:02:57;98351.34;;;26.86;100.00
21431;BME280;10876;49.038;10.608;2022-08-01T11:05:28;98353.72;;;26.68;100.00
21431;BME280;10876;49.038;10.608;2022-08-01T11:07:58;98354.69;;;26.58;100.00
21431;BME280;10876;49.038;10.608;2022-08-01T11:10:32;98353.47;;;26.59;100.00
21431;BME280;10876;49.038;10.608;2022-08-01T11:13:02;98357.25;;;26.72;100.00
21431;BME280;10876;49.038;10.608;2022-08-01T11:15:34;98348.91;;;26.88;100.00
21431;BME280;10876;49.038;10.608;2022-08-01T11:18:03;98351.75;;;26.65;100.00
21431;BME280;10876;49.038;10.608;2022-08-01T11:20:32;98354.50;;;26.68;100.00
21431;BME280;10876;49.038;10.608;2022-08-01T11:23:25;98347.22;;;26.47;100.00
21431;BME280;10876;49.038;10.608;2022-08-01T11:26:20;98353.34;;;27.09;100.00
21431;BME280;10876;49.038;10.608;2022-08-01T11:29:11;98336.38;;;27.16;100.00
21431;BME280;10876;49.038;10.608;2022-08-01T11:31:40;98347.31;;;27.31;100.00
21431;BME280;10876;49.038;10.608;2022-08-01T11:34:08;98339.06;;;27.60;100.00
21431;BME280;10876;49.038;10.608;2022-08-01T11:36:35;98327.03;;;27.39;100.00
21431;BME280;10876;49.038;10.608;2022-08-01T11:39:18;98334.22;;;27.80;100.00
21431;BME280;10876;49.038;10.608;2022-08-01T11:41:46;98324.22;;;27.39;100.00
21431;BME280;10876;49.038;10.608;2022-08-01T11:44:19;98336.19;;;28.00;100.00
21431;BME280;10876;49.038;10.608;2022-08-01T11:47:00;98337.44;;;28.64;100.00
21431;BME280;10876;49.038;10.608;2022-08-01T11:49:34;98330.97;;;28.80;100.00
21431;BME280;10876;49.038;10.608;2022-08-01T11:52:12;98319.09;;;28.72;100.00
21431;BME280;10876;49.038;10.608;2022-08-01T11:54:40;98318.41;;;28.03;100.00
21431;BME280;10876;49.038;10.608;2022-08-01T11:57:09;98321.81;;;27.58;100.00
21431;BME280;10876;49.038;10.608;2022-08-01T11:59:39;98316.97;;;27.58;100.00
21431;BME280;10876;49.038;10.608;2022-08-01T12:02:22;98318.97;;;27.78;100.00
21431;BME280;10876;49.038;10.608;2022-08-01T12:04:51;98316.59;;;27.20;100.00
21431;BME280;10876;49.038;10.608;2022-08-01T12:07:19;98313.13;;;27.32;100.00
21431;BME280;10876;49.038;10.608;2022-08-01T12:09:47;98314.13;;;27.78;100.00
21431;BME280;10876;49.038;10.608;2022-08-01T12:12:16;98305.91;;;28.04;100.00
21431;BME280;10876;49.038;10.608;2022-08-01T12:14:52;98303.09;;;28.20;100.00
21431;BME280;10876;49.038;10.608;2022-08-01T12:17:42;98293.94;;;28.16;100.00
21431;BME280;10876;49.038;10.608;2022-08-01T12:20:12;98293.75;;;28.07;100.00
21431;BME280;10876;49.038;10.608;2022-08-01T12:22:40;98289.44;;;28.35;100.00
21431;BME280;10876;49.038;10.608;2022-08-01T12:25:09;98294.81;;;28.29;100.00
21431;BME280;10876;49.038;10.608;2022-08-01T12:27:38;98298.69;;;28.03;100.00
21431;BME280;10876;49.038;10.608;2022-08-01T12:30:11;98296.41;;;27.98;100.00
21431;BME280;10876;49.038;10.608;2022-08-01T12:32:43;98295.97;;;27.63;100.00
21431;BME280;10876;49.038;10.608;2022-08-01T12:35:11;98303.31;;;27.40;100.00
21431;BME280;10876;49.038;10.608;2022-08-01T12:37:40;98303.78;;;27.55;100.00
21431;BME280;10876;49.038;10.608;2022-08-01T12:40:11;98300.63;;;27.70;100.00
21431;BME280;10876;49.038;10.608;2022-08-01T12:42:39;98306.69;;;27.88;100.00
21431;BME280;10876;49.038;10.608;2022-08-01T12:45:09;98303.34;;;28.59;100.00
21431;BME280;10876;49.038;10.608;2022-08-01T12:47:39;98300.34;;;28.66;100.00
21431;BME280;10876;49.038;10.608;2022-08-01T12:50:11;98283.00;;;28.35;100.00
21431;BME280;10876;49.038;10.608;2022-08-01T12:52:42;98295.34;;;28.57;100.00
21431;BME280;10876;49.038;10.608;2022-08-01T12:55:11;98288.31;;;28.16;100.00
21431;BME280;10876;49.038;10.608;2022-08-01T12:57:41;98294.72;;;27.64;100.00
21431;BME280;10876;49.038;10.608;2022-08-01T13:00:15;98289.31;;;27.73;100.00
21431;BME280;10876;49.038;10.608;2022-08-01T13:02:43;98290.09;;;28.72;100.00
21431;BME280;10876;49.038;10.608;2022-08-01T13:05:12;98282.56;;;29.40;100.00
21431;BME280;10876;49.038;10.608;2022-08-01T13:07:43;98280.28;;;29.22;100.00
21431;BME280;10876;49.038;10.608;2022-08-01T13:10:11;98277.53;;;28.60;100.00
21431;BME280;10876;49.038;10.608;2022-08-01T13:12:39;98273.88;;;28.14;100.00
21431;BME280;10876;49.038;10.608;2022-08-01T13:15:21;98274.00;;;27.74;100.00
21431;BME280;10876;49.038;10.608;2022-08-01T13:17:49;98263.03;;;28.29;100.00
21431;BME280;10876;49.038;10.608;2022-08-01T13:20:26;98260.47;;;28.51;100.00
21431;BME280;10876;49.038;10.608;2022-08-01T13:22:53;98249.91;;;29.13;100.00
21431;BME280;10876;49.038;10.608;2022-08-01T13:25:21;98244.88;;;29.85;100.00
21431;BME280;10876;49.038;10.608;2022-08-01T13:27:48;98239.34;;;29.94;100.00
21431;BME280;10876;49.038;10.608;2022-08-01T13:30:15;98247.56;;;29.25;100.00
21431;BME280;10876;49.038;10.608;2022-08-01T13:32:44;98232.09;;;29.93;100.00
21431;BME280;10876;49.038;10.608;2022-08-01T13:35:12;98238.34;;;29.62;100.00
21431;BME280;10876;49.038;10.608;2022-08-01T13:37:41;98229.03;;;29.49;100.00
21431;BME280;10876;49.038;10.608;2022-08-01T13:40:10;98230.16;;;29.90;100.00
21431;BME280;10876;49.038;10.608;2022-08-01T13:42:37;98218.50;;;30.14;100.00
21431;BME280;10876;49.038;10.608;2022-08-01T13:45:06;98223.41;;;29.75;100.00
21431;BME280;10876;49.038;10.608;2022-08-01T13:47:36;98212.78;;;29.79;100.00
21431;BME280;10876;49.038;10.608;2022-08-01T13:50:04;98220.66;;;29.33;100.00
21431;BME280;10876;49.038;10.608;2022-08-01T13:52:31;98215.88;;;29.04;100.00
21431;BME280;10876;49.038;10.608;2022-08-01T13:55:00;98216.28;;;28.90;100.00
21431;BME280;10876;49.038;10.608;2022-08-01T13:57:27;98218.63;;;29.21;100.00
21431;BME280;10876;49.038;10.608;2022-08-01T13:59:55;98222.75;;;29.71;100.00
21431;BME280;10876;49.038;10.608;2022-08-01T14:02:25;98216.50;;;29.76;100.00
21431;BME280;10876;49.038;10.608;2022-08-01T14:04:52;98216.84;;;29.52;100.00
21431;BME280;10876;49.038;10.608;2022-08-01T14:07:19;98215.38;;;28.93;100.00
21431;BME280;10876;49.038;10.608;2022-08-01T14:09:46;98207.06;;;29.02;100.00